Time;durP1;ratioP1;P1;durP2;ratioP2;P2;SDS_P1;SDS_P2;PMS_P1;PMS_P2;Temp;Humidity;BMP_temperature;BMP_pressure;BME280_temperature;BME280_humidity;BME280_pressure;Samples;Min_cycle;Max_cycle;Signal;HPM_P1;HPM_P2
2023/05/06 00:00:36;;;;;;;0.00;0.00;;;;;;;;;;1737823;28;20199;-75
2023/05/06 00:01:29;;;;;;;0.00;0.00;;;;;;;;;;1738201;28;20210;-76
2023/05/06 00:02:21;;;;;;;0.00;0.00;;;;;;;;;;1738782;28;20223;-76
2023/05/06 00:03:12;;;;;;;0.00;0.00;;;;;;;;;;1738396;28;20663;-75
2023/05/06 00:04:04;;;;;;;0.00;0.00;;;;;;;;;;1738872;28;20351;-74
2023/05/06 00:04:55;;;;;;;0.00;0.00;;;;;;;;;;1738844;28;20242;-74
2023/05/06 00:05:48;;;;;;;0.00;0.00;;;;;;;;;;1739161;28;20200;-74
2023/05/06 00:06:40;;;;;;;0.00;0.00;;;;;;;;;;1738313;28;20791;-74
2023/05/06 00:07:32;;;;;;;0.00;0.00;;;;;;;;;;1738854;28;20480;-74
2023/05/06 00:08:23;;;;;;;0.00;0.00;;;;;;;;;;1738579;28;20679;-73
2023/05/06 00:09:15;;;;;;;0.00;0.00;;;;;;;;;;1738939;28;20575;-73
2023/05/06 00:10:06;;;;;;;0.00;0.00;;;;;;;;;;1738498;28;20206;-74
2023/05/06 00:10:58;;;;;;;0.00;0.00;;;;;;;;;;1739052;28;20777;-72
2023/05/06 00:11:50;;;;;;;0.00;0.00;;;;;;;;;;1736292;28;20246;-74
2023/05/06 00:12:41;;;;;;;0.00;0.00;;;;;;;;;;1731570;28;20277;-74
2023/05/06 00:13:33;;;;;;;0.00;0.00;;;;;;;;;;1730719;28;20580;-74
2023/05/06 00:14:24;;;;;;;0.00;0.00;;;;;;;;;;1728697;28;20205;-73
2023/05/06 00:15:16;;;;;;;0.00;0.00;;;;;;;;;;1730569;28;20298;-73
2023/05/06 00:16:07;;;;;;;0.00;0.00;;;;;;;;;;1726199;28;20209;-74
2023/05/06 00:17:01;;;;;;;0.00;0.00;;;;;;;;;;1733469;28;20200;-74
2023/05/06 00:17:52;;;;;;;0.00;0.00;;;;;;;;;;1731945;28;20584;-74
2023/05/06 00:18:44;;;;;;;0.00;0.00;;;;;;;;;;1728992;28;20318;-74
2023/05/06 00:19:35;;;;;;;0.00;0.00;;;;;;;;;;1730149;28;20221;-74
2023/05/06 00:20:27;;;;;;;0.00;0.00;;;;;;;;;;1731282;28;20584;-74
2023/05/06 00:21:18;;;;;;;0.00;0.00;;;;;;;;;;1731526;28;20201;-73
2023/05/06 00:22:10;;;;;;;0.00;0.00;;;;;;;;;;1729986;28;20268;-73
2023/05/06 00:23:01;;;;;;;0.00;0.00;;;;;;;;;;1731014;28;20219;-73
2023/05/06 00:23:53;;;;;;;0.00;0.00;;;;;;;;;;1728097;28;20267;-73
2023/05/06 00:24:44;;;;;;;0.00;0.00;;;;;;;;;;1731206;28;20620;-73
2023/05/06 00:25:35;;;;;;;0.00;0.00;;;;;;;;;;1727034;28;20211;-73
2023/05/06 00:26:27;;;;;;;0.00;0.00;;;;;;;;;;1728183;28;20691;-73
2023/05/06 00:27:18;;;;;;;0.00;0.00;;;;;;;;;;1730303;28;20205;-75
2023/05/06 00:28:10;;;;;;;0.00;0.00;;;;;;;;;;1731419;28;20221;-73
2023/05/06 00:29:01;;;;;;;0.00;0.00;;;;;;;;;;1727245;28;20688;-73
2023/05/06 00:29:53;;;;;;;0.00;0.00;;;;;;;;;;1731734;28;20210;-75
2023/05/06 00:30:44;;;;;;;0.00;0.00;;;;;;;;;;1731919;28;20389;-74
2023/05/06 00:31:36;;;;;;;0.00;0.00;;;;;;;;;;1731314;28;20618;-73
2023/05/06 00:32:28;;;;;;;0.00;0.00;;;;;;;;;;1729918;28;20204;-73
2023/05/06 00:33:20;;;;;;;0.00;0.00;;;;;;;;;;1731581;28;20209;-73
2023/05/06 00:34:11;;;;;;;0.00;0.00;;;;;;;;;;1727409;28;20635;-73
2023/05/06 00:35:04;;;;;;;0.00;0.00;;;;;;;;;;1731533;28;20217;-73
2023/05/06 00:35:55;;;;;;;0.00;0.00;;;;;;;;;;1732243;28;20259;-73
2023/05/06 00:36:47;;;;;;;0.00;0.00;;;;;;;;;;1730678;28;20210;-73
2023/05/06 00:37:38;;;;;;;0.00;0.00;;;;;;;;;;1730367;28;20661;-73
2023/05/06 00:38:29;;;;;;;0.00;0.00;;;;;;;;;;1730683;28;20208;-73
2023/05/06 00:39:21;;;;;;;0.00;0.00;;;;;;;;;;1727996;28;20265;-73
2023/05/06 00:40:13;;;;;;;0.00;0.00;;;;;;;;;;1731640;28;20199;-73
2023/05/06 00:41:05;;;;;;;0.00;0.00;;;;;;;;;;1731769;28;20203;-73
2023/05/06 00:41:58;;;;;;;0.00;0.00;;;;;;;;;;1730264;28;20310;-73
2023/05/06 00:42:50;;;;;;;0.00;0.00;;;;;;;;;;1725738;28;20231;-73
2023/05/06 00:43:41;;;;;;;0.00;0.00;;;;;;;;;;1729077;28;20207;-73
2023/05/06 00:44:33;;;;;;;0.00;0.00;;;;;;;;;;1729555;28;20270;-73
2023/05/06 00:45:24;;;;;;;0.00;0.00;;;;;;;;;;1731853;28;20277;-73
2023/05/06 00:46:17;;;;;;;0.00;0.00;;;;;;;;;;1731381;28;20200;-74
2023/05/06 00:47:08;;;;;;;0.00;0.00;;;;;;;;;;1728627;28;20215;-74
2023/05/06 00:48:01;;;;;;;0.00;0.00;;;;;;;;;;1731505;28;20211;-74
2023/05/06 00:48:53;;;;;;;0.00;0.00;;;;;;;;;;1728416;28;20665;-74
2023/05/06 00:49:45;;;;;;;0.00;0.00;;;;;;;;;;1730740;28;20206;-74
2023/05/06 00:50:36;;;;;;;0.00;0.00;;;;;;;;;;1726241;28;20656;-74
2023/05/06 00:51:28;;;;;;;0.00;0.00;;;;;;;;;;1728142;28;20574;-74
2023/05/06 00:52:19;;;;;;;0.00;0.00;;;;;;;;;;1729970;28;20276;-74
2023/05/06 00:53:11;;;;;;;0.00;0.00;;;;;;;;;;1730826;28;20211;-74
2023/05/06 00:54:03;;;;;;;0.00;0.00;;;;;;;;;;1726832;28;20214;-74
2023/05/06 00:54:55;;;;;;;0.00;0.00;;;;;;;;;;1730059;28;20207;-74
2023/05/06 00:55:46;;;;;;;0.00;0.00;;;;;;;;;;1731425;28;20227;-74
2023/05/06 00:56:39;;;;;;;0.00;0.00;;;;;;;;;;1731134;28;20294;-73
2023/05/06 00:57:30;;;;;;;0.00;0.00;;;;;;;;;;1729870;28;20672;-74
2023/05/06 00:58:22;;;;;;;0.00;0.00;;;;;;;;;;1731361;28;20586;-74
2023/05/06 00:59:13;;;;;;;0.00;0.00;;;;;;;;;;1727208;28;20203;-74
2023/05/06 01:00:06;;;;;;;0.00;0.00;;;;;;;;;;1731502;28;20207;-74
2023/05/06 01:00:57;;;;;;;0.00;0.00;;;;;;;;;;1731877;28;20613;-74
2023/05/06 01:01:51;;;;;;;0.00;0.00;;;;;;;;;;1730410;28;20203;-74
2023/05/06 01:02:42;;;;;;;0.00;0.00;;;;;;;;;;1730793;28;20300;-74
2023/05/06 01:03:35;;;;;;;0.00;0.00;;;;;;;;;;1730350;28;20204;-74
2023/05/06 01:04:27;;;;;;;0.00;0.00;;;;;;;;;;1728515;28;20276;-74
2023/05/06 01:05:21;;;;;;;0.00;0.00;;;;;;;;;;1731146;28;20204;-74
2023/05/06 01:06:16;;;;;;;0.00;0.00;;;;;;;;;;1731305;28;20211;-73
2023/05/06 01:07:12;;;;;;;0.00;0.00;;;;;;;;;;1729960;28;20200;-74
2023/05/06 01:08:10;;;;;;;0.00;0.00;;;;;;;;;;1730970;28;20242;-73
2023/05/06 01:09:08;;;;;;;0.00;0.00;;;;;;;;;;1727280;28;20265;-73
2023/05/06 01:10:02;;;;;;;0.00;0.00;;;;;;;;;;1731404;28;20241;-73
2023/05/06 01:10:56;;;;;;;0.00;0.00;;;;;;;;;;1725631;28;20270;-74
2023/05/06 01:11:49;;;;;;;0.00;0.00;;;;;;;;;;1734335;28;20254;-74
2023/05/06 01:12:49;;;;;;;0.00;0.00;;;;;;;;;;1730214;28;20292;-74
2023/05/06 01:13:45;;;;;;;0.00;0.00;;;;;;;;;;1729382;28;20218;-74
2023/05/06 01:14:39;;;;;;;0.00;0.00;;;;;;;;;;1729534;28;20247;-74
2023/05/06 01:15:33;;;;;;;0.00;0.00;;;;;;;;;;1729109;28;20282;-74
2023/05/06 01:16:26;;;;;;;0.00;0.00;;;;;;;;;;1727620;28;20294;-74
2023/05/06 01:17:18;;;;;;;0.00;0.00;;;;;;;;;;1727332;28;20223;-73
2023/05/06 01:18:11;;;;;;;0.00;0.00;;;;;;;;;;1731346;28;20261;-73
2023/05/06 01:19:05;;;;;;;0.00;0.00;;;;;;;;;;1727132;28;20444;-73
2023/05/06 01:20:03;;;;;;;0.00;0.00;;;;;;;;;;1733487;28;20689;-73
2023/05/06 01:20:55;;;;;;;0.00;0.00;;;;;;;;;;1725489;28;20668;-74
2023/05/06 01:21:48;;;;;;;0.00;0.00;;;;;;;;;;1730787;28;20234;-73
2023/05/06 01:22:39;;;;;;;0.00;0.00;;;;;;;;;;1730319;28;20382;-73
2023/05/06 01:23:50;;;;;;;0.00;0.00;;;;;;;;;;1730343;28;20207;-74
2023/05/06 01:24:42;;;;;;;0.00;0.00;;;;;;;;;;1730012;28;20211;-74
2023/05/06 01:25:34;;;;;;;0.00;0.00;;;;;;;;;;1728837;28;20321;-74
2023/05/06 01:26:25;;;;;;;0.00;0.00;;;;;;;;;;1728069;28;20636;-75
2023/05/06 01:27:17;;;;;;;0.00;0.00;;;;;;;;;;1729793;28;20322;-74
2023/05/06 01:28:10;;;;;;;0.00;0.00;;;;;;;;;;1731283;28;20219;-75
2023/05/06 01:29:02;;;;;;;0.00;0.00;;;;;;;;;;1727186;28;20296;-75
2023/05/06 01:29:54;;;;;;;0.00;0.00;;;;;;;;;;1731834;28;20208;-75
2023/05/06 01:30:49;;;;;;;0.00;0.00;;;;;;;;;;1727358;28;20205;-76
2023/05/06 01:31:43;;;;;;;0.00;0.00;;;;;;;;;;1730183;28;20207;-76
2023/05/06 01:32:39;;;;;;;0.00;0.00;;;;;;;;;;1729971;28;20207;-76
2023/05/06 01:33:35;;;;;;;0.00;0.00;;;;;;;;;;1734318;28;20203;-76
2023/05/06 01:34:30;;;;;;;0.00;0.00;;;;;;;;;;1728935;28;20248;-76
2023/05/06 01:35:24;;;;;;;0.00;0.00;;;;;;;;;;1729687;28;20399;-76
2023/05/06 01:36:21;;;;;;;0.00;0.00;;;;;;;;;;1726999;28;20215;-76
2023/05/06 01:37:21;;;;;;;0.00;0.00;;;;;;;;;;1729929;28;20254;-75
2023/05/06 01:38:15;;;;;;;0.00;0.00;;;;;;;;;;1731802;28;20215;-75
2023/05/06 01:39:12;;;;;;;0.00;0.00;;;;;;;;;;1726371;28;20212;-77
2023/05/06 01:40:04;;;;;;;0.00;0.00;;;;;;;;;;1733504;28;20207;-75
2023/05/06 01:40:58;;;;;;;0.00;0.00;;;;;;;;;;1725652;28;20207;-75
2023/05/06 01:41:50;;;;;;;0.00;0.00;;;;;;;;;;1730558;28;20239;-75
2023/05/06 01:42:43;;;;;;;0.00;0.00;;;;;;;;;;1730542;28;20269;-75
2023/05/06 01:43:34;;;;;;;0.00;0.00;;;;;;;;;;1729951;28;20614;-75
2023/05/06 01:44:27;;;;;;;0.00;0.00;;;;;;;;;;1728409;28;20661;-75
2023/05/06 01:45:20;;;;;;;0.00;0.00;;;;;;;;;;1729962;28;20269;-75
2023/05/06 01:46:15;;;;;;;0.00;0.00;;;;;;;;;;1726065;28;20207;-75
2023/05/06 01:47:07;;;;;;;0.00;0.00;;;;;;;;;;1732926;28;20209;-77
2023/05/06 01:47:59;;;;;;;0.00;0.00;;;;;;;;;;1729605;28;20717;-75
2023/05/06 01:48:53;;;;;;;0.00;0.00;;;;;;;;;;1728958;28;20389;-76
2023/05/06 01:49:45;;;;;;;0.00;0.00;;;;;;;;;;1730217;28;20211;-75
2023/05/06 01:50:36;;;;;;;0.00;0.00;;;;;;;;;;1734214;28;20280;-76
2023/05/06 01:51:27;;;;;;;0.00;0.00;;;;;;;;;;1731353;28;20231;-75
2023/05/06 01:52:21;;;;;;;0.00;0.00;;;;;;;;;;1729297;28;20746;-75
2023/05/06 01:53:12;;;;;;;0.00;0.00;;;;;;;;;;1730640;28;20207;-76
2023/05/06 01:54:04;;;;;;;0.00;0.00;;;;;;;;;;1729200;28;20618;-76
2023/05/06 01:54:57;;;;;;;0.00;0.00;;;;;;;;;;1727363;28;20516;-75
2023/05/06 01:55:49;;;;;;;0.00;0.00;;;;;;;;;;1725772;28;20652;-75
2023/05/06 01:56:40;;;;;;;0.00;0.00;;;;;;;;;;1729403;28;20215;-75
2023/05/06 01:57:32;;;;;;;0.00;0.00;;;;;;;;;;1729517;28;20206;-75
2023/05/06 01:58:23;;;;;;;0.00;0.00;;;;;;;;;;1731014;28;20207;-75
2023/05/06 01:59:15;;;;;;;0.00;0.00;;;;;;;;;;1726690;28;20204;-74
2023/05/06 02:00:06;;;;;;;0.00;0.00;;;;;;;;;;1731197;28;20282;-74
2023/05/06 02:00:57;;;;;;;0.00;0.00;;;;;;;;;;1728604;28;20217;-75
2023/05/06 02:01:49;;;;;;;0.00;0.00;;;;;;;;;;1732512;28;20203;-74
2023/05/06 02:02:40;;;;;;;0.00;0.00;;;;;;;;;;1730427;28;20242;-74
2023/05/06 02:03:32;;;;;;;0.00;0.00;;;;;;;;;;1730638;28;20231;-74
2023/05/06 02:04:23;;;;;;;0.00;0.00;;;;;;;;;;1727575;28;20281;-74
2023/05/06 02:05:15;;;;;;;0.00;0.00;;;;;;;;;;1731123;28;20202;-74
2023/05/06 02:06:06;;;;;;;0.00;0.00;;;;;;;;;;1731252;28;20642;-74
2023/05/06 02:06:58;;;;;;;0.00;0.00;;;;;;;;;;1730579;28;20207;-74
2023/05/06 02:07:50;;;;;;;0.00;0.00;;;;;;;;;;1732199;28;20677;-74
2023/05/06 02:08:42;;;;;;;0.00;0.00;;;;;;;;;;1729985;28;20486;-74
2023/05/06 02:09:33;;;;;;;0.00;0.00;;;;;;;;;;1730062;28;20211;-74
2023/05/06 02:10:26;;;;;;;0.00;0.00;;;;;;;;;;1730365;28;20260;-74
2023/05/06 02:11:17;;;;;;;0.00;0.00;;;;;;;;;;1727712;28;20430;-75
2023/05/06 02:12:09;;;;;;;0.00;0.00;;;;;;;;;;1739552;28;20245;-74
2023/05/06 02:13:00;;;;;;;0.08;0.08;;;;;;;;;;1739537;28;20568;-75
2023/05/06 02:13:53;;;;;;;0.00;0.00;;;;;;;;;;1739732;28;20252;-75
2023/05/06 02:14:44;;;;;;;0.00;0.00;;;;;;;;;;1739106;28;20208;-74
2023/05/06 02:15:36;;;;;;;0.00;0.00;;;;;;;;;;1737769;28;20549;-74
2023/05/06 02:16:28;;;;;;;0.00;0.00;;;;;;;;;;1739244;28;20208;-74
2023/05/06 02:17:19;;;;;;;0.00;0.00;;;;;;;;;;1739590;28;20536;-75
2023/05/06 02:18:11;;;;;;;0.00;0.00;;;;;;;;;;1739310;28;20232;-75
2023/05/06 02:19:02;;;;;;;0.00;0.00;;;;;;;;;;1739649;28;20531;-74
2023/05/06 02:19:54;;;;;;;0.00;0.00;;;;;;;;;;1739006;28;20244;-74
2023/05/06 02:20:45;;;;;;;0.00;0.00;;;;;;;;;;1740042;28;20573;-75
2023/05/06 02:21:37;;;;;;;0.00;0.00;;;;;;;;;;1739066;28;20612;-74
2023/05/06 02:22:28;;;;;;;0.00;0.00;;;;;;;;;;1739758;28;20210;-74
2023/05/06 02:23:19;;;;;;;0.00;0.00;;;;;;;;;;1738341;28;20230;-74
2023/05/06 02:24:11;;;;;;;0.00;0.00;;;;;;;;;;1739454;28;20292;-73
2023/05/06 02:25:02;;;;;;;0.00;0.00;;;;;;;;;;1739651;28;20217;-73
2023/05/06 02:25:56;;;;;;;0.00;0.00;;;;;;;;;;1739493;28;20276;-73
2023/05/06 02:26:47;;;;;;;0.00;0.00;;;;;;;;;;1738974;28;20610;-73
2023/05/06 02:27:39;;;;;;;0.00;0.00;;;;;;;;;;1739521;28;20210;-73
2023/05/06 02:28:30;;;;;;;0.00;0.00;;;;;;;;;;1739199;28;20270;-73
2023/05/06 02:29:22;;;;;;;0.00;0.00;;;;;;;;;;1739610;28;20624;-73
2023/05/06 02:30:14;;;;;;;0.00;0.00;;;;;;;;;;1739499;28;20622;-73
2023/05/06 02:31:05;;;;;;;0.00;0.00;;;;;;;;;;1739674;28;20226;-74
2023/05/06 02:31:57;;;;;;;0.00;0.00;;;;;;;;;;1739235;28;20269;-75
2023/05/06 02:32:48;;;;;;;0.00;0.00;;;;;;;;;;1739365;28;20215;-75
2023/05/06 02:33:40;;;;;;;0.00;0.00;;;;;;;;;;1738971;28;20269;-75
2023/05/06 02:34:31;;;;;;;0.00;0.00;;;;;;;;;;1739516;28;20707;-75
2023/05/06 02:35:23;;;;;;;0.00;0.00;;;;;;;;;;1739208;28;20627;-75
2023/05/06 02:36:14;;;;;;;0.00;0.00;;;;;;;;;;1739234;28;20207;-75
2023/05/06 02:37:06;;;;;;;0.00;0.00;;;;;;;;;;1739317;28;20209;-75
2023/05/06 02:37:58;;;;;;;0.00;0.00;;;;;;;;;;1739250;28;20597;-75
2023/05/06 02:38:50;;;;;;;0.00;0.00;;;;;;;;;;1739352;28;20214;-75
2023/05/06 02:39:41;;;;;;;0.00;0.00;;;;;;;;;;1738895;28;20247;-75
2023/05/06 02:40:34;;;;;;;0.00;0.00;;;;;;;;;;1739871;28;20526;-75
2023/05/06 02:41:26;;;;;;;0.00;0.00;;;;;;;;;;1739078;28;20241;-75
2023/05/06 02:42:18;;;;;;;0.00;0.00;;;;;;;;;;1736650;28;20209;-76
2023/05/06 02:43:09;;;;;;;0.00;0.00;;;;;;;;;;1735281;28;20569;-75
2023/05/06 02:44:01;;;;;;;0.00;0.00;;;;;;;;;;1739652;28;20557;-76
2023/05/06 02:44:52;;;;;;;0.00;0.00;;;;;;;;;;1738999;28;20211;-75
2023/05/06 02:45:44;;;;;;;0.00;0.00;;;;;;;;;;1739898;28;20207;-75
2023/05/06 02:46:35;;;;;;;0.00;0.00;;;;;;;;;;1738886;28;20544;-74
2023/05/06 02:47:27;;;;;;;0.00;0.00;;;;;;;;;;1739356;28;20202;-74
2023/05/06 02:48:18;;;;;;;0.00;0.00;;;;;;;;;;1738690;28;20235;-73
2023/05/06 02:49:10;;;;;;;0.00;0.00;;;;;;;;;;1739593;28;20213;-72
2023/05/06 02:50:01;;;;;;;0.00;0.00;;;;;;;;;;1739430;28;20274;-72
2023/05/06 02:50:53;;;;;;;0.00;0.00;;;;;;;;;;1739531;28;20300;-73
2023/05/06 02:51:44;;;;;;;0.00;0.00;;;;;;;;;;1738968;28;20644;-73
2023/05/06 02:52:36;;;;;;;0.00;0.00;;;;;;;;;;1741879;28;20252;-73
2023/05/06 02:53:27;;;;;;;0.00;0.00;;;;;;;;;;1738410;28;20229;-73
2023/05/06 02:54:19;;;;;;;0.00;0.00;;;;;;;;;;1739411;28;20635;-73
2023/05/06 02:55:10;;;;;;;0.00;0.00;;;;;;;;;;1736712;28;20245;-74
2023/05/06 02:56:02;;;;;;;0.00;0.00;;;;;;;;;;1739842;28;20218;-73
2023/05/06 02:56:54;;;;;;;0.00;0.00;;;;;;;;;;1738643;28;20243;-73
2023/05/06 02:57:46;;;;;;;0.00;0.00;;;;;;;;;;1739608;28;20211;-73
2023/05/06 02:58:37;;;;;;;0.10;0.10;;;;;;;;;;1738729;28;20962;-73
2023/05/06 02:59:29;;;;;;;0.00;0.00;;;;;;;;;;1739439;28;20221;-73
2023/05/06 03:00:20;;;;;;;0.00;0.00;;;;;;;;;;1739440;28;20191;-73
2023/05/06 03:01:12;;;;;;;0.00;0.00;;;;;;;;;;1739223;28;20209;-73
2023/05/06 03:02:04;;;;;;;0.00;0.00;;;;;;;;;;1741104;28;20240;-73
2023/05/06 03:02:56;;;;;;;0.00;0.00;;;;;;;;;;1738822;28;20206;-74
2023/05/06 03:03:47;;;;;;;0.00;0.00;;;;;;;;;;1739227;28;20229;-74
2023/05/06 03:04:39;;;;;;;0.00;0.00;;;;;;;;;;1738971;28;20198;-73
2023/05/06 03:05:30;;;;;;;0.00;0.00;;;;;;;;;;1739090;28;20635;-73
2023/05/06 03:06:22;;;;;;;0.00;0.00;;;;;;;;;;1739037;28;20562;-74
2023/05/06 03:07:13;;;;;;;0.00;0.00;;;;;;;;;;1739321;28;20271;-74
2023/05/06 03:08:05;;;;;;;0.00;0.00;;;;;;;;;;1739314;28;20283;-74
2023/05/06 03:08:56;;;;;;;0.08;0.08;;;;;;;;;;1736577;28;20209;-75
2023/05/06 03:09:48;;;;;;;0.00;0.00;;;;;;;;;;1738885;28;20283;-75
2023/05/06 03:10:39;;;;;;;0.00;0.00;;;;;;;;;;1739611;28;20213;-75
2023/05/06 03:11:31;;;;;;;0.00;0.00;;;;;;;;;;1737183;28;20195;-75
2023/05/06 03:12:23;;;;;;;0.00;0.00;;;;;;;;;;1730468;28;20655;-75
2023/05/06 03:13:15;;;;;;;0.00;0.00;;;;;;;;;;1729529;28;20230;-75
2023/05/06 03:14:06;;;;;;;0.00;0.00;;;;;;;;;;1725526;28;20216;-75
2023/05/06 03:15:01;;;;;;;0.00;0.00;;;;;;;;;;1729573;28;20239;-74
2023/05/06 03:15:52;;;;;;;0.00;0.00;;;;;;;;;;1725857;28;20218;-75
2023/05/06 03:16:44;;;;;;;0.00;0.00;;;;;;;;;;1726613;28;20305;-74
2023/05/06 03:17:36;;;;;;;0.00;0.00;;;;;;;;;;1729354;28;20206;-74
2023/05/06 03:18:28;;;;;;;0.00;0.00;;;;;;;;;;1727545;28;20267;-74
2023/05/06 03:19:19;;;;;;;0.00;0.00;;;;;;;;;;1727466;28;20590;-74
2023/05/06 03:20:12;;;;;;;0.00;0.00;;;;;;;;;;1730650;28;20206;-73
2023/05/06 03:21:03;;;;;;;0.00;0.00;;;;;;;;;;1732765;28;20230;-73
2023/05/06 03:21:56;;;;;;;0.00;0.00;;;;;;;;;;1726997;28;20214;-73
2023/05/06 03:22:47;;;;;;;0.00;0.00;;;;;;;;;;1730737;28;20596;-73
2023/05/06 03:23:39;;;;;;;0.00;0.00;;;;;;;;;;1727948;28;20266;-73
2023/05/06 03:24:30;;;;;;;0.00;0.00;;;;;;;;;;1732235;28;20346;-73
2023/05/06 03:25:23;;;;;;;0.00;0.00;;;;;;;;;;1726762;28;20629;-73
2023/05/06 03:26:14;;;;;;;0.00;0.00;;;;;;;;;;1726056;28;20216;-73
2023/05/06 03:27:06;;;;;;;0.00;0.00;;;;;;;;;;1726460;28;20260;-73
2023/05/06 03:27:58;;;;;;;0.00;0.00;;;;;;;;;;1726263;28;20207;-73
2023/05/06 03:28:50;;;;;;;0.00;0.00;;;;;;;;;;1726344;28;20211;-73
2023/05/06 03:29:41;;;;;;;0.00;0.00;;;;;;;;;;1728930;28;20209;-73
2023/05/06 03:30:33;;;;;;;0.00;0.00;;;;;;;;;;1729991;28;20206;-74
2023/05/06 03:31:24;;;;;;;0.00;0.00;;;;;;;;;;1730878;28;20628;-74
2023/05/06 03:32:16;;;;;;;0.00;0.00;;;;;;;;;;1725187;28;20208;-74
2023/05/06 03:33:07;;;;;;;0.00;0.00;;;;;;;;;;1726850;28;20669;-74
2023/05/06 03:33:59;;;;;;;0.00;0.00;;;;;;;;;;1732307;28;20536;-73
2023/05/06 03:34:50;;;;;;;0.00;0.00;;;;;;;;;;1730440;28;20261;-73
2023/05/06 03:35:42;;;;;;;0.00;0.00;;;;;;;;;;1730575;28;20206;-73
2023/05/06 03:36:34;;;;;;;0.00;0.00;;;;;;;;;;1729640;28;20281;-73
2023/05/06 03:37:25;;;;;;;0.00;0.00;;;;;;;;;;1727869;28;20206;-74
2023/05/06 03:38:17;;;;;;;0.10;0.10;;;;;;;;;;1730505;28;20200;-73
2023/05/06 03:39:09;;;;;;;0.00;0.00;;;;;;;;;;1731973;28;20212;-73
2023/05/06 03:40:03;;;;;;;0.00;0.00;;;;;;;;;;1729254;28;20666;-73
2023/05/06 03:40:54;;;;;;;0.00;0.00;;;;;;;;;;1731814;28;20608;-74
2023/05/06 03:41:46;;;;;;;0.00;0.00;;;;;;;;;;1728459;28;20509;-74
2023/05/06 03:42:37;;;;;;;0.00;0.00;;;;;;;;;;1729820;28;20274;-74
2023/05/06 03:43:30;;;;;;;0.00;0.00;;;;;;;;;;1730543;28;20630;-74
2023/05/06 03:44:21;;;;;;;0.00;0.00;;;;;;;;;;1727349;28;20219;-73
2023/05/06 03:45:13;;;;;;;0.10;0.10;;;;;;;;;;1728436;28;20258;-74
2023/05/06 03:46:04;;;;;;;0.00;0.00;;;;;;;;;;1732447;28;20204;-74
2023/05/06 03:46:56;;;;;;;0.00;0.00;;;;;;;;;;1726631;28;20218;-73
2023/05/06 03:47:47;;;;;;;0.00;0.00;;;;;;;;;;1730703;28;20210;-74
2023/05/06 03:48:39;;;;;;;0.00;0.00;;;;;;;;;;1731541;28;20201;-73
2023/05/06 03:49:30;;;;;;;0.00;0.00;;;;;;;;;;1732091;28;20598;-73
2023/05/06 03:50:22;;;;;;;0.00;0.00;;;;;;;;;;1726242;28;20284;-73
2023/05/06 03:51:13;;;;;;;0.00;0.00;;;;;;;;;;1726113;28;20206;-74
2023/05/06 03:52:05;;;;;;;0.00;0.00;;;;;;;;;;1726427;28;20225;-73
2023/05/06 03:52:57;;;;;;;0.10;0.10;;;;;;;;;;1730597;28;20210;-73
2023/05/06 03:53:48;;;;;;;0.00;0.00;;;;;;;;;;1731370;28;20432;-74
2023/05/06 03:54:39;;;;;;;0.00;0.00;;;;;;;;;;1730593;28;20213;-74
2023/05/06 03:55:32;;;;;;;0.00;0.00;;;;;;;;;;1729533;28;20205;-73
2023/05/06 03:56:23;;;;;;;0.00;0.00;;;;;;;;;;1730763;28;20275;-74
2023/05/06 03:57:15;;;;;;;0.00;0.00;;;;;;;;;;1726161;28;20276;-73
2023/05/06 03:58:06;;;;;;;0.00;0.00;;;;;;;;;;1731200;28;20219;-74
2023/05/06 03:58:59;;;;;;;0.00;0.00;;;;;;;;;;1731843;28;20207;-74
2023/05/06 03:59:50;;;;;;;0.00;0.00;;;;;;;;;;1731333;28;20623;-74
2023/05/06 04:00:42;;;;;;;0.00;0.00;;;;;;;;;;1730028;28;20215;-73
2023/05/06 04:01:34;;;;;;;0.10;0.10;;;;;;;;;;1729490;28;20208;-74
2023/05/06 04:02:28;;;;;;;0.00;0.00;;;;;;;;;;1727580;28;20214;-75
2023/05/06 04:03:19;;;;;;;0.00;0.00;;;;;;;;;;1730541;28;20698;-74
2023/05/06 04:04:10;;;;;;;0.00;0.00;;;;;;;;;;1732129;28;20226;-76
2023/05/06 04:05:02;;;;;;;0.00;0.00;;;;;;;;;;1729407;28;20259;-76
2023/05/06 04:05:54;;;;;;;0.00;0.00;;;;;;;;;;1725371;28;20225;-76
2023/05/06 04:06:45;;;;;;;0.00;0.00;;;;;;;;;;1726620;28;20271;-75
2023/05/06 04:07:37;;;;;;;0.00;0.00;;;;;;;;;;1728866;28;20196;-76
2023/05/06 04:08:28;;;;;;;0.00;0.00;;;;;;;;;;1730185;28;20215;-76
2023/05/06 04:09:20;;;;;;;0.00;0.00;;;;;;;;;;1732071;28;20212;-74
2023/05/06 04:10:12;;;;;;;0.00;0.00;;;;;;;;;;1728085;28;20224;-76
2023/05/06 04:11:07;;;;;;;0.00;0.00;;;;;;;;;;1732337;28;20264;-75
2023/05/06 04:11:58;;;;;;;0.08;0.08;;;;;;;;;;1735720;28;20673;-75
2023/05/06 04:12:50;;;;;;;0.00;0.00;;;;;;;;;;1739063;28;20594;-75
2023/05/06 04:13:41;;;;;;;0.00;0.00;;;;;;;;;;1738270;28;20276;-75
2023/05/06 04:14:34;;;;;;;0.00;0.00;;;;;;;;;;1739024;28;20210;-75
2023/05/06 04:15:25;;;;;;;0.00;0.00;;;;;;;;;;1738752;28;20270;-74
2023/05/06 04:16:17;;;;;;;0.00;0.00;;;;;;;;;;1738501;28;20286;-75
2023/05/06 04:17:08;;;;;;;0.00;0.00;;;;;;;;;;1739254;28;20204;-73
2023/05/06 04:18:00;;;;;;;0.00;0.00;;;;;;;;;;1733502;28;20293;-73
2023/05/06 04:18:51;;;;;;;0.00;0.00;;;;;;;;;;1739171;28;20212;-73
2023/05/06 04:19:43;;;;;;;0.10;0.10;;;;;;;;;;1738721;28;20485;-73
2023/05/06 04:20:34;;;;;;;0.00;0.00;;;;;;;;;;1739848;28;20214;-73
2023/05/06 04:21:26;;;;;;;0.00;0.00;;;;;;;;;;1738839;28;20609;-74
2023/05/06 04:22:17;;;;;;;0.00;0.00;;;;;;;;;;1736377;28;20250;-74
2023/05/06 04:23:09;;;;;;;0.00;0.00;;;;;;;;;;1738688;28;20196;-74
2023/05/06 04:24:01;;;;;;;0.00;0.00;;;;;;;;;;1736918;28;20213;-74
2023/05/06 04:24:53;;;;;;;0.00;0.00;;;;;;;;;;1738805;28;20651;-74
2023/05/06 04:25:47;;;;;;;0.08;0.08;;;;;;;;;;1739521;28;20367;-74
2023/05/06 04:26:39;;;;;;;0.00;0.00;;;;;;;;;;1738485;28;20199;-73
2023/05/06 04:27:31;;;;;;;0.00;0.00;;;;;;;;;;1739324;28;20205;-74
2023/05/06 04:28:22;;;;;;;0.00;0.00;;;;;;;;;;1738720;28;20200;-73
2023/05/06 04:29:14;;;;;;;0.00;0.00;;;;;;;;;;1739354;28;20527;-73
2023/05/06 04:30:08;;;;;;;0.00;0.00;;;;;;;;;;1739280;28;20205;-74
2023/05/06 04:31:01;;;;;;;0.00;0.00;;;;;;;;;;1739206;28;20231;-73
2023/05/06 04:31:54;;;;;;;0.00;0.00;;;;;;;;;;1738589;28;20243;-74
2023/05/06 04:32:45;;;;;;;0.00;0.00;;;;;;;;;;1738751;28;20298;-74
2023/05/06 04:33:37;;;;;;;0.00;0.00;;;;;;;;;;1738765;28;20206;-73
2023/05/06 04:34:28;;;;;;;0.00;0.00;;;;;;;;;;1739188;28;20210;-74
2023/05/06 04:35:20;;;;;;;0.00;0.00;;;;;;;;;;1738918;28;20629;-74
2023/05/06 04:36:11;;;;;;;0.00;0.00;;;;;;;;;;1738835;28;20206;-74
2023/05/06 04:37:03;;;;;;;0.00;0.00;;;;;;;;;;1739161;28;20210;-74
2023/05/06 04:37:55;;;;;;;0.08;0.08;;;;;;;;;;1738708;28;20632;-74
2023/05/06 04:38:47;;;;;;;0.00;0.00;;;;;;;;;;1738396;28;20902;-74
2023/05/06 04:39:38;;;;;;;0.00;0.00;;;;;;;;;;1738676;28;20260;-74
2023/05/06 04:40:30;;;;;;;0.00;0.00;;;;;;;;;;1739047;28;20215;-74
2023/05/06 04:41:22;;;;;;;0.00;0.00;;;;;;;;;;1738454;28;20223;-74
2023/05/06 04:42:14;;;;;;;0.00;0.00;;;;;;;;;;1739009;28;20223;-74
2023/05/06 04:43:05;;;;;;;0.00;0.00;;;;;;;;;;1738562;28;20642;-74
2023/05/06 04:43:57;;;;;;;0.00;0.00;;;;;;;;;;1738345;28;20227;-74
2023/05/06 04:44:49;;;;;;;0.00;0.00;;;;;;;;;;1738242;28;20217;-74
2023/05/06 04:45:47;;;;;;;0.00;0.00;;;;;;;;;;1739144;28;20626;-72
2023/05/06 04:46:38;;;;;;;0.00;0.00;;;;;;;;;;1738064;28;20206;-73
2023/05/06 04:47:30;;;;;;;0.00;0.00;;;;;;;;;;1738568;28;20202;-74
2023/05/06 04:48:22;;;;;;;0.00;0.00;;;;;;;;;;1738301;28;20233;-74
2023/05/06 04:49:14;;;;;;;0.00;0.00;;;;;;;;;;1738628;28;20208;-74
2023/05/06 04:50:05;;;;;;;0.00;0.00;;;;;;;;;;1739043;28;20709;-74
2023/05/06 04:50:57;;;;;;;0.00;0.00;;;;;;;;;;1738642;28;20626;-74
2023/05/06 04:51:48;;;;;;;0.00;0.00;;;;;;;;;;1738198;28;20227;-73
2023/05/06 04:52:40;;;;;;;0.00;0.00;;;;;;;;;;1738801;28;20639;-73
2023/05/06 04:53:31;;;;;;;0.00;0.00;;;;;;;;;;1737629;28;20539;-73
2023/05/06 04:54:23;;;;;;;0.10;0.10;;;;;;;;;;1738778;28;20209;-73
2023/05/06 04:55:14;;;;;;;0.00;0.00;;;;;;;;;;1738347;28;20267;-73
2023/05/06 04:56:06;;;;;;;0.00;0.00;;;;;;;;;;1739091;28;20587;-73
2023/05/06 04:56:57;;;;;;;0.00;0.00;;;;;;;;;;1738222;28;21001;-73
2023/05/06 04:57:49;;;;;;;0.00;0.00;;;;;;;;;;1738582;28;20841;-73
2023/05/06 04:58:40;;;;;;;0.00;0.00;;;;;;;;;;1738434;28;20210;-73
2023/05/06 04:59:32;;;;;;;0.00;0.00;;;;;;;;;;1738664;28;20209;-73
2023/05/06 05:00:25;;;;;;;0.00;0.00;;;;;;;;;;1738929;28;20673;-73
2023/05/06 05:01:19;;;;;;;0.00;0.00;;;;;;;;;;1733468;28;20419;-74
2023/05/06 05:02:10;;;;;;;0.00;0.00;;;;;;;;;;1741321;28;20240;-74
2023/05/06 05:03:02;;;;;;;0.00;0.00;;;;;;;;;;1733736;28;20214;-74
2023/05/06 05:03:53;;;;;;;0.00;0.00;;;;;;;;;;1738424;28;20253;-73
2023/05/06 05:04:45;;;;;;;0.00;0.00;;;;;;;;;;1738389;28;20230;-74
2023/05/06 05:05:36;;;;;;;0.00;0.00;;;;;;;;;;1738883;28;20709;-74
2023/05/06 05:06:28;;;;;;;0.00;0.00;;;;;;;;;;1738109;28;20218;-73
2023/05/06 05:07:19;;;;;;;0.00;0.00;;;;;;;;;;1736367;28;20287;-73
2023/05/06 05:08:12;;;;;;;0.00;0.00;;;;;;;;;;1738266;28;20264;-73
2023/05/06 05:09:03;;;;;;;0.00;0.00;;;;;;;;;;1737117;28;20203;-73
2023/05/06 05:09:55;;;;;;;0.00;0.00;;;;;;;;;;1737957;28;21331;-73
2023/05/06 05:10:46;;;;;;;0.00;0.00;;;;;;;;;;1739035;28;20595;-73
2023/05/06 05:11:38;;;;;;;0.00;0.00;;;;;;;;;;1737870;28;20290;-73
2023/05/06 05:12:29;;;;;;;0.00;0.00;;;;;;;;;;1738587;28;20207;-73